Time;durP1;ratioP1;P1;durP2;ratioP2;P2;SDS_P1;SDS_P2;PMS_P1;PMS_P2;Temp;Humidity;BMP_temperature;BMP_pressure;BME280_temperature;BME280_humidity;BME280_pressure;Samples;Min_cycle;Max_cycle;Signal;HPM_P1;HPM_P2
2022/11/15 00:00:04;;;;;;;4.03;1.13;;;;;;;;;;4998688;28;20037;-68
2022/11/15 00:02:48;;;;;;;6.23;1.53;;;;;;;;;;4996380;28;20132;-68
2022/11/15 00:05:34;;;;;;;4.43;1.43;;;;;;;;;;4982937;28;20034;-68
2022/11/15 00:08:19;;;;;;;2.33;1.10;;;;;;;;;;4983002;28;20128;-68
2022/11/15 00:11:04;;;;;;;2.23;1.00;;;;;;;;;;4982455;28;20124;-67
2022/11/15 00:13:49;;;;;;;2.83;1.20;;;;;;;;;;4998559;28;20128;-67
2022/11/15 00:16:34;;;;;;;1.90;1.10;;;;;;;;;;4998651;28;20034;-66
2022/11/15 00:19:18;;;;;;;3.53;1.40;;;;;;;;;;4998481;28;20034;-66
2022/11/15 00:22:02;;;;;;;4.77;1.60;;;;;;;;;;4998443;28;20068;-66
2022/11/15 00:24:46;;;;;;;3.03;1.20;;;;;;;;;;4997731;28;20051;-66
2022/11/15 00:27:30;;;;;;;2.60;1.57;;;;;;;;;;4998451;28;20044;-66
2022/11/15 00:30:14;;;;;;;2.30;1.43;;;;;;;;;;4998258;28;20034;-66
2022/11/15 00:33:08;;;;;;;1.97;1.30;;;;;;;;;;4998340;28;20092;-66
2022/11/15 00:35:52;;;;;;;5.13;1.23;;;;;;;;;;4982371;28;20387;-66
2022/11/15 00:38:38;;;;;;;4.77;1.60;;;;;;;;;;4997902;28;20057;-68
2022/11/15 00:41:22;;;;;;;2.93;1.50;;;;;;;;;;4982237;28;20396;-68
2022/11/15 00:44:06;;;;;;;3.77;1.40;;;;;;;;;;4998178;28;20044;-68
2022/11/15 00:46:50;;;;;;;3.63;1.20;;;;;;;;;;4998033;28;20044;-69
2022/11/15 00:49:34;;;;;;;1.23;1.10;;;;;;;;;;4997882;28;20038;-69
2022/11/15 00:52:18;;;;;;;3.03;1.30;;;;;;;;;;4998113;28;20072;-69
2022/11/15 00:55:03;;;;;;;5.90;1.40;;;;;;;;;;4998146;28;20037;-69
2022/11/15 00:57:50;;;;;;;3.40;1.23;;;;;;;;;;4981852;28;20084;-69
2022/11/15 01:00:35;;;;;;;2.57;1.03;;;;;;;;;;4997693;28;20029;-68
2022/11/15 01:03:19;;;;;;;3.73;1.30;;;;;;;;;;4997764;28;20026;-68
2022/11/15 01:06:03;;;;;;;5.37;1.60;;;;;;;;;;4997761;28;20038;-67
2022/11/15 01:08:48;;;;;;;4.83;1.30;;;;;;;;;;4997714;28;20072;-69
2022/11/15 01:11:31;;;;;;;1.10;1.00;;;;;;;;;;4997657;28;20040;-69
2022/11/15 01:14:17;;;;;;;1.30;1.00;;;;;;;;;;5011494;28;20080;-68
2022/11/15 01:17:01;;;;;;;3.70;1.30;;;;;;;;;;4997629;28;20443;-68
2022/11/15 01:19:45;;;;;;;1.97;1.10;;;;;;;;;;4997731;28;20128;-68
2022/11/15 01:22:29;;;;;;;3.53;1.33;;;;;;;;;;4997983;28;20042;-68
2022/11/15 01:25:13;;;;;;;2.97;1.33;;;;;;;;;;4997621;28;20033;-68
2022/11/15 01:27:57;;;;;;;3.83;1.40;;;;;;;;;;5005672;28;20044;-67
2022/11/15 01:30:41;;;;;;;5.03;1.17;;;;;;;;;;5020148;28;20045;-69
2022/11/15 01:33:26;;;;;;;5.80;1.20;;;;;;;;;;5020712;28;20037;-68
2022/11/15 01:36:12;;;;;;;1.90;1.17;;;;;;;;;;5020158;28;20506;-70
2022/11/15 01:38:57;;;;;;;5.07;1.43;;;;;;;;;;5037120;28;20052;-69
2022/11/15 01:41:41;;;;;;;3.70;1.13;;;;;;;;;;5019936;28;20057;-69
2022/11/15 01:44:28;;;;;;;2.60;1.13;;;;;;;;;;5020506;28;20098;-66
2022/11/15 01:47:12;;;;;;;7.43;1.20;;;;;;;;;;5020054;28;20064;-67
2022/11/15 01:49:59;;;;;;;3.97;1.00;;;;;;;;;;5020380;28;20044;-67
2022/11/15 01:52:43;;;;;;;4.40;1.10;;;;;;;;;;5020099;28;20103;-68
2022/11/15 01:55:28;;;;;;;2.77;1.10;;;;;;;;;;5020595;28;20037;-69
2022/11/15 01:58:12;;;;;;;3.27;1.10;;;;;;;;;;5019910;28;20033;-69
2022/11/15 02:00:56;;;;;;;5.27;1.00;;;;;;;;;;5006227;28;20045;-69
2022/11/15 02:04:00;;;;;;;2.17;1.10;;;;;;;;;;5019843;28;20061;-69
2022/11/15 02:06:45;;;;;;;3.43;1.60;;;;;;;;;;5018001;28;20139;-69
2022/11/15 02:09:29;;;;;;;3.70;1.00;;;;;;;;;;5020189;28;20086;-69
2022/11/15 02:12:15;;;;;;;4.50;1.00;;;;;;;;;;5019862;28;20558;-69
2022/11/15 02:14:59;;;;;;;4.23;1.30;;;;;;;;;;5020237;28;20029;-69
2022/11/15 02:17:44;;;;;;;3.97;1.23;;;;;;;;;;5019799;28;20033;-69
2022/11/15 02:20:29;;;;;;;2.97;1.23;;;;;;;;;;5033915;28;20037;-69
2022/11/15 02:23:20;;;;;;;3.77;1.10;;;;;;;;;;5019772;28;20041;-69
2022/11/15 02:26:03;;;;;;;3.73;0.93;;;;;;;;;;5019748;28;20037;-69
2022/11/15 02:28:57;;;;;;;1.37;0.90;;;;;;;;;;5019694;28;20114;-69
2022/11/15 02:31:48;;;;;;;3.47;1.03;;;;;;;;;;5019941;28;20139;-69
2022/11/15 02:34:58;;;;;;;2.45;1.05;;;;;;;;;;5019614;28;20127;-69
2022/11/15 02:37:52;;;;;;;3.50;1.30;;;;;;;;;;5013005;28;20089;-69
2022/11/15 02:40:46;;;;;;;3.47;1.20;;;;;;;;;;4993482;28;20038;-70
2022/11/15 02:43:57;;;;;;;3.50;1.20;;;;;;;;;;4980595;28;20060;-69
2022/11/15 02:49:48;;;;;;;5.23;1.10;;;;;;;;;;5015007;28;20048;-67
2022/11/15 02:52:32;;;;;;;3.63;1.10;;;;;;;;;;4984223;28;20029;-67
2022/11/15 02:55:26;;;;;;;3.17;1.30;;;;;;;;;;4984458;28;20049;-68
2022/11/15 02:58:34;;;;;;;4.50;1.13;;;;;;;;;;4997362;28;20530;-68
2022/11/15 03:01:27;;;;;;;2.93;1.20;;;;;;;;;;4983426;28;20049;-68
2022/11/15 03:04:29;;;;;;;7.10;1.70;;;;;;;;;;4983665;28;20030;-68
2022/11/15 03:07:13;;;;;;;6.00;1.57;;;;;;;;;;4983527;28;20029;-68
2022/11/15 03:10:15;;;;;;;2.70;1.07;;;;;;;;;;4983504;28;20029;-68
2022/11/15 03:13:19;;;;;;;2.60;1.27;;;;;;;;;;4983584;28;20038;-67
2022/11/15 03:16:06;;;;;;;2.73;1.40;;;;;;;;;;4994443;28;20128;-67
2022/11/15 03:18:57;;;;;;;6.17;1.30;;;;;;;;;;4983442;28;20042;-67
2022/11/15 03:21:43;;;;;;;6.77;1.20;;;;;;;;;;4983063;28;20476;-68
2022/11/15 03:24:29;;;;;;;14.63;1.90;;;;;;;;;;4983236;28;20457;-68
2022/11/15 03:27:17;;;;;;;5.83;1.40;;;;;;;;;;4983225;28;20161;-68
2022/11/15 03:30:06;;;;;;;1.63;1.10;;;;;;;;;;4997196;28;20045;-68
2022/11/15 03:32:52;;;;;;;8.10;1.43;;;;;;;;;;4996910;28;20034;-67
2022/11/15 03:35:39;;;;;;;6.37;1.23;;;;;;;;;;4994946;28;20183;-68
2022/11/15 03:38:26;;;;;;;4.83;1.40;;;;;;;;;;5014287;28;20052;-66
2022/11/15 03:41:17;;;;;;;6.87;1.47;;;;;;;;;;5022025;28;20068;-67
2022/11/15 03:44:07;;;;;;;8.07;2.25;;;;;;;;;;5036372;28;20033;-68
2022/11/15 03:47:00;;;;;;;5.50;1.67;;;;;;;;;;5021990;28;20043;-67
2022/11/15 03:49:46;;;;;;;6.93;1.60;;;;;;;;;;5022050;28;20110;-68
2022/11/15 03:52:32;;;;;;;9.17;2.00;;;;;;;;;;5038849;28;20041;-67
2022/11/15 03:55:18;;;;;;;4.10;1.67;;;;;;;;;;5021994;28;20099;-68
2022/11/15 03:58:02;;;;;;;4.67;1.20;;;;;;;;;;5021714;28;20161;-68
2022/11/15 04:00:46;;;;;;;7.60;1.33;;;;;;;;;;5021747;28;20178;-68
2022/11/15 04:03:30;;;;;;;4.63;1.53;;;;;;;;;;5021856;28;20024;-68
2022/11/15 04:06:14;;;;;;;5.47;1.90;;;;;;;;;;5021826;28;20033;-70
2022/11/15 04:08:58;;;;;;;6.57;1.90;;;;;;;;;;5011308;28;20106;-69
2022/11/15 04:11:43;;;;;;;5.17;1.50;;;;;;;;;;5002133;28;20541;-69
2022/11/15 04:14:28;;;;;;;9.53;1.37;;;;;;;;;;5002128;28;20037;-68
2022/11/15 04:17:13;;;;;;;4.00;1.50;;;;;;;;;;5001895;28;20126;-68
2022/11/15 04:26:18;;;;;;;3.50;1.50;;;;;;;;;;5015364;28;20391;-68
2022/11/15 04:32:06;;;;;;;7.73;1.60;;;;;;;;;;5015785;28;20040;-69
2022/11/15 04:34:50;;;;;;;3.43;1.03;;;;;;;;;;5001376;28;20041;-69
2022/11/15 04:37:35;;;;;;;5.27;1.20;;;;;;;;;;5001472;28;20060;-70
2022/11/15 04:40:19;;;;;;;2.20;1.10;;;;;;;;;;5015277;28;20037;-70
2022/11/15 04:43:06;;;;;;;4.77;1.20;;;;;;;;;;5001214;28;20050;-68
2022/11/15 04:45:51;;;;;;;4.80;1.10;;;;;;;;;;5017986;28;20460;-69
2022/11/15 04:48:35;;;;;;;7.13;1.40;;;;;;;;;;5001409;28;20037;-70
2022/11/15 04:51:20;;;;;;;4.93;1.60;;;;;;;;;;5001151;28;20365;-67
2022/11/15 04:54:04;;;;;;;7.20;1.80;;;;;;;;;;5001175;28;20088;-69
2022/11/15 04:56:48;;;;;;;5.10;1.40;;;;;;;;;;5001196;28;20096;-69
2022/11/15 04:59:32;;;;;;;5.03;1.63;;;;;;;;;;5001082;28;20049;-70
2022/11/15 05:02:16;;;;;;;4.33;1.67;;;;;;;;;;5001337;28;20507;-70
2022/11/15 05:05:00;;;;;;;4.33;1.73;;;;;;;;;;5017346;28;20037;-70
2022/11/15 05:07:45;;;;;;;4.53;1.60;;;;;;;;;;5000975;28;20033;-70
2022/11/15 05:10:29;;;;;;;10.70;2.00;;;;;;;;;;5014510;28;20041;-70
2022/11/15 05:13:13;;;;;;;4.33;1.83;;;;;;;;;;4997728;28;20405;-69
2022/11/15 05:15:57;;;;;;;4.87;1.53;;;;;;;;;;4979833;28;20041;-69
2022/11/15 05:18:42;;;;;;;6.50;1.17;;;;;;;;;;5010454;28;20049;-69
2022/11/15 05:21:26;;;;;;;4.77;1.30;;;;;;;;;;4993097;28;20077;-69
2022/11/15 05:24:11;;;;;;;7.10;1.53;;;;;;;;;;4993636;28;20038;-70
2022/11/15 05:26:55;;;;;;;6.50;1.27;;;;;;;;;;4993360;28;20384;-69
2022/11/15 05:29:39;;;;;;;5.63;1.33;;;;;;;;;;4993621;28;20033;-69
2022/11/15 05:32:23;;;;;;;4.43;1.47;;;;;;;;;;4993417;28;20064;-68
2022/11/15 05:35:08;;;;;;;5.53;1.60;;;;;;;;;;4993773;28;20034;-69
2022/11/15 05:37:52;;;;;;;5.23;1.70;;;;;;;;;;4989522;28;20061;-69
2022/11/15 05:40:37;;;;;;;7.30;1.70;;;;;;;;;;4974694;28;20041;-69
2022/11/15 05:43:21;;;;;;;8.53;1.70;;;;;;;;;;4947318;28;20054;-71
2022/11/15 05:46:08;;;;;;;11.77;1.70;;;;;;;;;;4960784;28;20034;-71
2022/11/15 05:48:53;;;;;;;7.03;1.40;;;;;;;;;;4960566;28;20184;-67
2022/11/15 05:51:38;;;;;;;8.37;2.47;;;;;;;;;;4974632;28;20045;-68
2022/11/15 05:54:23;;;;;;;3.30;1.40;;;;;;;;;;4960556;28;20042;-67
2022/11/15 05:57:08;;;;;;;2.80;1.30;;;;;;;;;;4960535;28;20035;-68
2022/11/15 05:59:53;;;;;;;5.97;1.60;;;;;;;;;;4959972;28;20038;-67
2022/11/15 06:02:37;;;;;;;7.10;1.80;;;;;;;;;;4974281;28;20049;-67
2022/11/15 06:05:21;;;;;;;9.30;2.33;;;;;;;;;;4960174;28;20541;-68
2022/11/15 06:08:05;;;;;;;4.13;2.23;;;;;;;;;;4973483;28;20088;-69
2022/11/15 06:10:49;;;;;;;6.10;2.60;;;;;;;;;;4960386;28;20108;-67
2022/11/15 06:13:33;;;;;;;5.93;1.87;;;;;;;;;;4959726;28;20026;-68
2022/11/15 06:16:17;;;;;;;6.87;1.97;;;;;;;;;;4960155;28;20034;-66
2022/11/15 06:19:01;;;;;;;3.90;1.93;;;;;;;;;;4973609;28;20034;-67
2022/11/15 06:21:45;;;;;;;4.43;1.67;;;;;;;;;;4964613;28;20130;-69
2022/11/15 06:24:30;;;;;;;6.43;1.77;;;;;;;;;;4984240;28;20031;-71
2022/11/15 06:27:14;;;;;;;4.40;2.00;;;;;;;;;;4987335;28;20361;-68
2022/11/15 06:29:58;;;;;;;4.67;1.70;;;;;;;;;;4971802;28;20350;-69
2022/11/15 06:32:42;;;;;;;5.43;1.67;;;;;;;;;;4968394;28;20037;-68
2022/11/15 06:35:27;;;;;;;4.10;1.67;;;;;;;;;;4963849;28;20031;-67
2022/11/15 06:38:11;;;;;;;8.03;1.50;;;;;;;;;;4969844;28;20057;-67
2022/11/15 06:41:01;;;;;;;6.70;1.60;;;;;;;;;;4989808;28;20026;-67
2022/11/15 06:43:45;;;;;;;8.40;1.90;;;;;;;;;;4989947;28;20200;-67
2022/11/15 06:46:29;;;;;;;11.20;1.87;;;;;;;;;;4990014;28;20083;-67
2022/11/15 06:49:14;;;;;;;6.33;1.80;;;;;;;;;;4990471;28;20484;-67
2022/11/15 06:51:58;;;;;;;5.77;1.37;;;;;;;;;;4990514;28;20535;-68
2022/11/15 06:54:42;;;;;;;7.30;1.70;;;;;;;;;;4991389;28;20816;-68
2022/11/15 06:57:28;;;;;;;5.30;1.87;;;;;;;;;;5019031;28;20033;-67
2022/11/15 07:00:13;;;;;;;3.70;1.40;;;;;;;;;;5002707;28;20127;-67
2022/11/15 07:02:59;;;;;;;6.07;1.60;;;;;;;;;;5002295;28;20045;-67
2022/11/15 07:05:50;;;;;;;3.93;1.50;;;;;;;;;;5016325;28;20041;-67
2022/11/15 07:08:35;;;;;;;8.15;2.03;;;;;;;;;;5002506;28;20037;-68
2022/11/15 07:11:22;;;;;;;6.17;1.63;;;;;;;;;;5002362;28;20073;-68
2022/11/15 07:14:06;;;;;;;3.33;1.90;;;;;;;;;;5002413;28;20043;-68
2022/11/15 07:16:50;;;;;;;9.40;1.67;;;;;;;;;;5002203;28;20037;-68
2022/11/15 07:19:34;;;;;;;5.73;1.80;;;;;;;;;;5018900;28;20040;-68
2022/11/15 07:22:18;;;;;;;10.70;1.80;;;;;;;;;;5001747;28;20048;-68
2022/11/15 07:25:03;;;;;;;4.33;1.60;;;;;;;;;;4991186;28;20034;-68
2022/11/15 07:27:54;;;;;;;6.00;1.90;;;;;;;;;;4991790;28;20072;-68
2022/11/15 07:30:38;;;;;;;9.38;1.52;;;;;;;;;;5002477;28;20035;-68
2022/11/15 07:33:30;;;;;;;5.73;1.27;;;;;;;;;;5002189;28;20038;-68
2022/11/15 07:36:15;;;;;;;3.17;1.60;;;;;;;;;;5001972;28;20395;-67
2022/11/15 07:38:59;;;;;;;3.67;1.73;;;;;;;;;;5001265;28;20055;-66
2022/11/15 07:41:43;;;;;;;4.40;1.40;;;;;;;;;;5001420;28;20084;-66
2022/11/15 07:44:27;;;;;;;6.63;1.50;;;;;;;;;;5001845;28;20375;-68
2022/11/15 07:47:12;;;;;;;8.20;1.80;;;;;;;;;;5001979;28;20036;-67
2022/11/15 07:49:57;;;;;;;7.63;1.77;;;;;;;;;;5018402;28;20422;-68
2022/11/15 07:52:41;;;;;;;4.87;1.60;;;;;;;;;;5001781;28;20128;-70
2022/11/15 07:55:27;;;;;;;4.40;1.60;;;;;;;;;;4999910;28;20460;-69
2022/11/15 07:58:12;;;;;;;4.83;1.93;;;;;;;;;;4999326;28;20049;-69
2022/11/15 08:00:56;;;;;;;5.60;1.90;;;;;;;;;;4995341;28;20077;-69
2022/11/15 08:03:40;;;;;;;7.10;1.67;;;;;;;;;;5010618;28;20033;-68
2022/11/15 08:06:24;;;;;;;7.27;1.70;;;;;;;;;;5010589;28;20040;-69
2022/11/15 08:09:08;;;;;;;4.37;1.90;;;;;;;;;;5013413;28;20041;-69
2022/11/15 08:11:53;;;;;;;4.77;1.63;;;;;;;;;;4997188;28;20515;-69
2022/11/15 08:14:38;;;;;;;6.00;1.60;;;;;;;;;;4999201;28;20033;-69
2022/11/15 08:17:22;;;;;;;7.17;1.70;;;;;;;;;;5001118;28;20033;-69
2022/11/15 08:20:07;;;;;;;6.43;1.77;;;;;;;;;;5000825;28;20030;-69
2022/11/15 08:22:51;;;;;;;9.03;2.13;;;;;;;;;;5001258;28;20140;-69
2022/11/15 08:25:35;;;;;;;7.13;2.10;;;;;;;;;;5001219;28;20122;-69
2022/11/15 08:28:19;;;;;;;6.57;2.00;;;;;;;;;;5001157;28;20033;-69
2022/11/15 08:31:04;;;;;;;8.70;2.03;;;;;;;;;;5001088;28;20033;-69
2022/11/15 08:33:48;;;;;;;27.60;2.50;;;;;;;;;;5014706;28;20458;-69
2022/11/15 08:36:32;;;;;;;5.83;1.80;;;;;;;;;;5014819;28;20033;-68
2022/11/15 08:39:16;;;;;;;5.30;1.90;;;;;;;;;;4999908;28;20057;-69
2022/11/15 08:42:00;;;;;;;4.97;1.70;;;;;;;;;;5000675;28;20377;-69
2022/11/15 08:44:44;;;;;;;7.10;2.07;;;;;;;;;;4999958;28;20033;-69
2022/11/15 08:47:29;;;;;;;6.50;2.00;;;;;;;;;;5017315;28;20137;-69
2022/11/15 08:50:13;;;;;;;9.13;1.90;;;;;;;;;;5017839;28;20120;-69
2022/11/15 08:52:57;;;;;;;3.80;1.63;;;;;;;;;;5000552;28;20175;-69
2022/11/15 08:55:41;;;;;;;8.00;2.13;;;;;;;;;;5000709;28;20030;-69
2022/11/15 08:58:25;;;;;;;4.53;2.07;;;;;;;;;;5013554;28;20195;-69
2022/11/15 09:01:17;;;;;;;8.93;2.77;;;;;;;;;;4999747;28;20049;-69
2022/11/15 09:04:01;;;;;;;5.90;1.80;;;;;;;;;;5000247;28;20037;-69
2022/11/15 09:06:45;;;;;;;3.80;1.83;;;;;;;;;;5000559;28;20041;-69
2022/11/15 09:09:28;;;;;;;3.17;1.57;;;;;;;;;;5014068;28;20039;-69
2022/11/15 09:12:13;;;;;;;7.03;1.83;;;;;;;;;;4998833;28;20107;-70
2022/11/15 09:14:58;;;;;;;6.17;2.07;;;;;;;;;;5000243;28;20546;-69
2022/11/15 09:17:42;;;;;;;4.80;1.90;;;;;;;;;;5000189;28;20038;-68
2022/11/15 09:20:26;;;;;;;6.03;2.30;;;;;;;;;;4999863;28;20033;-69
2022/11/15 09:23:10;;;;;;;9.77;2.10;;;;;;;;;;4999814;28;20472;-69
2022/11/15 09:26:02;;;;;;;7.27;2.27;;;;;;;;;;5000244;28;20128;-69
2022/11/15 09:28:46;;;;;;;5.87;1.90;;;;;;;;;;5000101;28;20037;-69
2022/11/15 09:31:33;;;;;;;6.80;2.20;;;;;;;;;;5013536;28;20502;-69
2022/11/15 09:34:17;;;;;;;9.13;2.40;;;;;;;;;;4999829;28;20111;-69
2022/11/15 09:37:01;;;;;;;5.90;2.00;;;;;;;;;;5013573;28;20036;-68
2022/11/15 09:39:46;;;;;;;6.17;2.27;;;;;;;;;;5013594;28;20057;-69
2022/11/15 09:42:57;;;;;;;7.60;2.03;;;;;;;;;;4999395;28;20045;-69
2022/11/15 09:45:47;;;;;;;3.60;1.60;;;;;;;;;;5031122;28;20048;-68
2022/11/15 09:48:26;;;;;;;13.90;2.10;;;;;;;;;;4982509;28;20037;-69
2022/11/15 09:51:25;;;;;;;13.93;2.40;;;;;;;;;;5001559;28;20034;-69
2022/11/15 09:53:50;;;;;;;7.50;2.50;;;;;;;;;;5013947;28;20069;-69
2022/11/15 09:56:20;;;;;;;15.93;3.17;;;;;;;;;;4981270;28;20138;-69
2022/11/15 09:58:52;;;;;;;5.50;2.20;;;;;;;;;;5001931;28;20038;-68
2022/11/15 10:01:35;;;;;;;11.53;3.00;;;;;;;;;;4984745;28;20137;-69
2022/11/15 10:04:01;;;;;;;5.23;2.33;;;;;;;;;;4985533;28;20064;-70
2022/11/15 10:06:27;;;;;;;8.77;2.70;;;;;;;;;;4984977;28;20479;-69
2022/11/15 10:08:58;;;;;;;7.67;2.67;;;;;;;;;;4985072;28;20033;-69
2022/11/15 10:11:23;;;;;;;;;;;;;;;;;;4985133;28;20037;-69
2022/11/15 10:13:50;;;;;;;6.77;2.53;;;;;;;;;;4984206;28;19939;-68
2022/11/15 10:16:27;;;;;;;6.13;2.47;;;;;;;;;;5001838;28;20037;-68
2022/11/15 10:19:05;;;;;;;11.33;2.03;;;;;;;;;;5000932;28;20041;-68
2022/11/15 10:21:43;;;;;;;11.73;2.90;;;;;;;;;;4984202;28;20095;-69
2022/11/15 10:24:12;;;;;;;9.03;2.37;;;;;;;;;;4984396;28;20041;-69
2022/11/15 10:26:45;;;;;;;10.67;2.37;;;;;;;;;;4984815;28;20092;-69
2022/11/15 10:29:12;;;;;;;6.47;2.20;;;;;;;;;;4984407;28;20500;-68
2022/11/15 10:31:40;;;;;;;14.53;2.30;;;;;;;;;;4984631;28;20033;-69
2022/11/15 10:34:13;;;;;;;8.37;2.93;;;;;;;;;;5001267;28;20076;-69
2022/11/15 10:36:43;;;;;;;7.40;1.73;;;;;;;;;;4984500;28;20044;-69
2022/11/15 10:39:11;;;;;;;11.93;1.90;;;;;;;;;;4983947;28;20063;-69
2022/11/15 10:41:41;;;;;;;10.17;2.23;;;;;;;;;;4983782;28;20452;-69
2022/11/15 10:44:06;;;;;;;6.47;2.03;;;;;;;;;;4984012;28;20464;-69
2022/11/15 10:46:32;;;;;;;15.10;2.57;;;;;;;;;;4984367;28;20136;-69
2022/11/15 10:49:18;;;;;;;5.83;1.87;;;;;;;;;;5000694;28;20124;-69
2022/11/15 10:51:46;;;;;;;9.13;2.23;;;;;;;;;;4984371;28;20041;-69
2022/11/15 10:54:21;;;;;;;7.10;2.27;;;;;;;;;;5016845;28;20353;-69
2022/11/15 10:56:52;;;;;;;4.67;2.00;;;;;;;;;;4984093;28;20095;-69
2022/11/15 10:59:23;;;;;;;6.35;2.20;;;;;;;;;;5000127;28;20045;-69
2022/11/15 11:01:48;;;;;;;4.97;2.17;;;;;;;;;;4999993;28;20082;-69
2022/11/15 11:04:18;;;;;;;10.30;2.10;;;;;;;;;;4999969;28;20458;-69
2022/11/15 11:06:50;;;;;;;8.93;2.60;;;;;;;;;;4984045;28;20456;-69
2022/11/15 11:09:23;;;;;;;5.90;2.23;;;;;;;;;;4983406;28;20041;-69
2022/11/15 11:11:50;;;;;;;6.03;1.90;;;;;;;;;;4983675;28;20072;-69
2022/11/15 11:14:22;;;;;;;6.93;2.17;;;;;;;;;;5016758;28;20116;-69
2022/11/15 11:16:53;;;;;;;6.50;1.90;;;;;;;;;;5000275;28;20037;-70
2022/11/15 11:19:37;;;;;;;8.53;2.13;;;;;;;;;;4999905;28;20041;-69
2022/11/15 11:22:16;;;;;;;7.07;1.90;;;;;;;;;;4983231;28;20041;-69
2022/11/15 11:24:44;;;;;;;7.33;2.00;;;;;;;;;;4999632;28;20041;-68
2022/11/15 11:27:18;;;;;;;12.63;2.40;;;;;;;;;;4983284;28;20410;-69
2022/11/15 11:29:44;;;;;;;8.50;2.10;;;;;;;;;;5016326;28;20055;-69
2022/11/15 11:32:09;;;;;;;7.20;2.10;;;;;;;;;;4983362;28;20029;-69
2022/11/15 11:34:50;;;;;;;8.07;1.93;;;;;;;;;;4983556;28;20045;-69
2022/11/15 11:37:28;;;;;;;6.07;1.92;;;;;;;;;;4983462;28;20048;-69
2022/11/15 11:39:59;;;;;;;7.15;2.00;;;;;;;;;;5016070;28;20061;-69
2022/11/15 11:42:34;;;;;;;6.47;2.47;;;;;;;;;;5015372;28;20480;-69
2022/11/15 11:45:14;;;;;;;7.40;2.10;;;;;;;;;;4983381;28;20038;-69
2022/11/15 11:47:46;;;;;;;6.75;2.33;;;;;;;;;;4983243;28;20063;-68
2022/11/15 11:50:15;;;;;;;6.17;2.20;;;;;;;;;;5015581;28;20305;-69
2022/11/15 11:52:43;;;;;;;13.10;3.67;;;;;;;;;;5015719;28;20045;-69
2022/11/15 11:55:22;;;;;;;10.97;3.37;;;;;;;;;;4998904;28;20045;-69
2022/11/15 11:57:50;;;;;;;5.63;2.33;;;;;;;;;;4982912;28;20044;-69
2022/11/15 12:00:16;;;;;;;4.57;2.20;;;;;;;;;;4982391;28;20272;-69
2022/11/15 12:02:45;;;;;;;5.00;2.30;;;;;;;;;;4982329;28;20048;-69
2022/11/15 12:05:13;;;;;;;10.57;2.13;;;;;;;;;;4998581;28;20392;-69
2022/11/15 12:07:40;;;;;;;6.77;2.10;;;;;;;;;;4999058;28;20041;-69
2022/11/15 12:10:38;;;;;;;6.37;2.03;;;;;;;;;;4982433;28;20038;-69
2022/11/15 12:13:13;;;;;;;5.37;2.20;;;;;;;;;;4948760;28;20449;-68
2022/11/15 12:15:45;;;;;;;10.70;2.40;;;;;;;;;;4963203;28;20034;-68
2022/11/15 12:18:13;;;;;;;8.93;2.60;;;;;;;;;;4963045;28;20461;-69
2022/11/15 12:20:42;;;;;;;6.70;1.97;;;;;;;;;;4961824;28;20038;-69
2022/11/15 12:23:13;;;;;;;9.20;2.43;;;;;;;;;;4962743;28;20049;-69
2022/11/15 12:25:45;;;;;;;4.03;2.07;;;;;;;;;;4979197;28;20072;-69
2022/11/15 12:28:29;;;;;;;5.33;2.33;;;;;;;;;;4962937;28;20042;-68
2022/11/15 12:31:13;;;;;;;9.03;2.60;;;;;;;;;;4963216;28;20033;-69
2022/11/15 12:33:43;;;;;;;9.67;2.33;;;;;;;;;;4979075;28;20030;-69
2022/11/15 12:36:11;;;;;;;6.50;2.38;;;;;;;;;;4963243;28;20063;-69
2022/11/15 12:38:56;;;;;;;8.10;2.67;;;;;;;;;;4962704;28;20170;-69
2022/11/15 12:41:23;;;;;;;12.00;3.17;;;;;;;;;;4962687;28;20037;-69
2022/11/15 12:43:49;;;;;;;10.40;3.20;;;;;;;;;;4994933;28;20052;-69
2022/11/15 12:46:18;;;;;;;9.80;3.10;;;;;;;;;;4962629;28;20120;-69
2022/11/15 12:48:47;;;;;;;9.83;2.73;;;;;;;;;;4962367;28;20104;-69
2022/11/15 12:51:35;;;;;;;11.07;2.93;;;;;;;;;;4962419;28;20188;-68
2022/11/15 12:54:20;;;;;;;5.37;2.60;;;;;;;;;;4977248;28;20267;-69
2022/11/15 12:57:09;;;;;;;9.27;3.60;;;;;;;;;;4982672;28;20033;-69
2022/11/15 12:59:54;;;;;;;6.77;3.37;;;;;;;;;;4987519;28;20498;-68
2022/11/15 13:02:39;;;;;;;7.87;4.00;;;;;;;;;;4981398;28;20041;-69
2022/11/15 13:05:18;;;;;;;11.10;4.03;;;;;;;;;;4998571;28;20041;-69
2022/11/15 13:07:46;;;;;;;11.20;4.90;;;;;;;;;;4981685;28;20033;-69
2022/11/15 13:10:14;;;;;;;8.87;4.77;;;;;;;;;;5013965;28;20063;-69
2022/11/15 13:12:46;;;;;;;13.23;3.80;;;;;;;;;;5030891;28;20038;-69
2022/11/15 13:15:14;;;;;;;13.27;3.70;;;;;;;;;;4997685;28;20486;-69
2022/11/15 13:17:40;;;;;;;12.13;3.50;;;;;;;;;;4981367;28;20037;-69
2022/11/15 13:20:11;;;;;;;9.40;3.43;;;;;;;;;;4981631;28;20045;-69
2022/11/15 13:22:54;;;;;;;6.97;3.47;;;;;;;;;;4997318;28;20053;-69
2022/11/15 13:25:28;;;;;;;9.60;3.47;;;;;;;;;;4981404;28;20036;-69
2022/11/15 13:27:57;;;;;;;7.37;2.90;;;;;;;;;;5014064;28;20029;-69
2022/11/15 13:30:25;;;;;;;10.97;3.50;;;;;;;;;;4981172;28;20422;-69
2022/11/15 13:32:55;;;;;;;10.60;3.73;;;;;;;;;;4997784;28;20052;-69
2022/11/15 13:35:26;;;;;;;9.60;3.72;;;;;;;;;;4981400;28;20510;-69
2022/11/15 13:37:55;;;;;;;11.00;4.50;;;;;;;;;;4997743;28;20068;-68
2022/11/15 13:40:27;;;;;;;17.70;4.10;;;;;;;;;;4997250;28;20375;-69
2022/11/15 13:42:53;;;;;;;11.20;4.40;;;;;;;;;;4997392;28;20131;-69
2022/11/15 13:45:19;;;;;;;15.97;4.63;;;;;;;;;;4981138;28;20133;-70
2022/11/15 13:47:44;;;;;;;14.60;5.50;;;;;;;;;;4981057;28;20041;-69
2022/11/15 13:50:15;;;;;;;25.70;6.23;;;;;;;;;;4981022;28;20083;-69
2022/11/15 13:52:43;;;;;;;18.42;6.60;;;;;;;;;;4980861;28;20048;-69
2022/11/15 13:55:22;;;;;;;14.07;5.57;;;;;;;;;;4997184;28;20037;-69
2022/11/15 13:57:58;;;;;;;15.77;6.13;;;;;;;;;;4997571;28;20029;-69
2022/11/15 14:00:33;;;;;;;18.40;6.90;;;;;;;;;;4981128;28;20037;-69
2022/11/15 14:03:06;;;;;;;18.43;5.83;;;;;;;;;;5013445;28;20480;-69
2022/11/15 14:05:31;;;;;;;16.70;5.20;;;;;;;;;;4981092;28;20080;-68
2022/11/15 14:08:02;;;;;;;15.27;6.10;;;;;;;;;;4980970;28;20034;-69
2022/11/15 14:10:34;;;;;;;15.63;5.97;;;;;;;;;;4997557;28;20099;-69
2022/11/15 14:13:01;;;;;;;19.33;6.20;;;;;;;;;;4980375;28;20037;-68
2022/11/15 14:15:34;;;;;;;14.30;5.73;;;;;;;;;;4980674;28;20495;-69
2022/11/15 14:18:00;;;;;;;16.17;5.60;;;;;;;;;;4997052;28;20029;-69
2022/11/15 14:20:31;;;;;;;11.27;4.90;;;;;;;;;;4997343;28;20033;-69
2022/11/15 14:22:58;;;;;;;16.33;5.30;;;;;;;;;;4980573;28;20156;-69
2022/11/15 14:25:25;;;;;;;11.97;4.90;;;;;;;;;;5013108;28;20033;-69
2022/11/15 14:28:10;;;;;;;15.77;4.40;;;;;;;;;;4997236;28;20104;-69
2022/11/15 14:30:36;;;;;;;16.87;7.30;;;;;;;;;;4980785;28;20033;-69
2022/11/15 14:33:15;;;;;;;19.47;8.07;;;;;;;;;;4980985;28;20052;-70
2022/11/15 14:35:41;;;;;;;16.93;7.10;;;;;;;;;;4997000;28;20073;-69
2022/11/15 14:38:07;;;;;;;19.30;6.60;;;;;;;;;;4980519;28;20503;-69
2022/11/15 14:40:33;;;;;;;14.10;5.83;;;;;;;;;;4980775;28;20045;-69
2022/11/15 14:42:59;;;;;;;15.03;6.70;;;;;;;;;;4981025;28;20051;-69
2022/11/15 14:45:26;;;;;;;11.37;4.87;;;;;;;;;;5000785;28;20376;-69
2022/11/15 14:47:52;;;;;;;12.70;4.63;;;;;;;;;;5000724;28;20037;-69
2022/11/15 14:50:19;;;;;;;13.27;4.77;;;;;;;;;;4983994;28;20048;-69
2022/11/15 14:52:44;;;;;;;12.43;4.33;;;;;;;;;;5000460;28;20056;-69
2022/11/15 14:55:21;;;;;;;11.97;4.30;;;;;;;;;;4983989;28;20049;-69
2022/11/15 14:57:47;;;;;;;11.20;4.93;;;;;;;;;;4983636;28;20029;-70
2022/11/15 15:00:14;;;;;;;13.40;4.13;;;;;;;;;;4983845;28;20033;-69
2022/11/15 15:02:40;;;;;;;9.67;5.10;;;;;;;;;;4983807;28;20060;-69
2022/11/15 15:05:14;;;;;;;10.80;4.97;;;;;;;;;;4983414;28;20036;-69
2022/11/15 15:07:39;;;;;;;7.63;4.10;;;;;;;;;;5000246;28;20096;-69
2022/11/15 15:10:05;;;;;;;11.77;4.07;;;;;;;;;;4983983;28;20045;-69
2022/11/15 15:12:30;;;;;;;8.27;3.40;;;;;;;;;;4982628;28;20037;-69
2022/11/15 15:14:56;;;;;;;7.77;3.60;;;;;;;;;;4983788;28;20131;-69
2022/11/15 15:17:21;;;;;;;10.33;4.10;;;;;;;;;;5016069;28;20033;-69
2022/11/15 15:19:47;;;;;;;8.43;4.30;;;;;;;;;;4983580;28;20040;-69
2022/11/15 15:22:14;;;;;;;10.67;4.27;;;;;;;;;;4999483;28;20491;-69
2022/11/15 15:24:39;;;;;;;11.07;4.73;;;;;;;;;;4983591;28;20045;-69
2022/11/15 15:27:05;;;;;;;13.10;4.80;;;;;;;;;;4999837;28;20041;-70
2022/11/15 15:29:30;;;;;;;8.60;4.60;;;;;;;;;;4983478;28;20045;-69
2022/11/15 15:31:56;;;;;;;10.37;4.20;;;;;;;;;;4983368;28;20044;-70
2022/11/15 15:34:22;;;;;;;14.47;5.10;;;;;;;;;;4983784;28;20033;-69
2022/11/15 15:36:48;;;;;;;7.80;4.57;;;;;;;;;;4983986;28;20349;-69
2022/11/15 15:39:13;;;;;;;9.63;4.47;;;;;;;;;;4982931;28;20103;-70
2022/11/15 15:41:39;;;;;;;10.33;4.20;;;;;;;;;;4982863;28;20060;-69
2022/11/15 15:44:05;;;;;;;7.80;4.00;;;;;;;;;;4982760;28;20044;-69
2022/11/15 15:46:30;;;;;;;10.33;3.73;;;;;;;;;;4983207;28;20112;-69
2022/11/15 15:48:56;;;;;;;9.77;3.50;;;;;;;;;;4983228;28;20137;-69
2022/11/15 15:51:21;;;;;;;8.13;3.80;;;;;;;;;;4983195;28;20037;-69
2022/11/15 15:53:47;;;;;;;13.17;4.37;;;;;;;;;;4999141;28;20033;-69
2022/11/15 15:56:13;;;;;;;13.30;3.63;;;;;;;;;;4982724;28;20045;-69
2022/11/15 15:58:39;;;;;;;9.67;3.60;;;;;;;;;;4982793;28;20083;-69
2022/11/15 16:01:04;;;;;;;6.90;3.47;;;;;;;;;;4999265;28;20093;-69
2022/11/15 16:03:31;;;;;;;8.07;3.00;;;;;;;;;;4998643;28;20049;-69
2022/11/15 16:05:58;;;;;;;7.00;3.07;;;;;;;;;;4982672;28;20167;-69